createdAt,value
2022-11-01T00:05:04.707Z,6.57
2022-11-01T00:15:51.195Z,5.47
2022-11-01T00:21:00.581Z,5.22
2022-11-01T00:26:09.094Z,4.20
2022-11-01T00:31:37.592Z,5.55
2022-11-01T00:42:12.801Z,4.35
2022-11-01T00:47:30.215Z,5.70
2022-11-01T00:52:41.788Z,4.45
2022-11-01T00:57:54.495Z,5.28
2022-11-01T01:03:07.580Z,5.03
2022-11-01T01:08:13.347Z,4.43
2022-11-01T01:13:50.079Z,4.45
2022-11-01T01:19:29.035Z,4.68
2022-11-01T01:25:05.183Z,4.75
2022-11-01T01:35:48.352Z,3.78
2022-11-01T01:41:19.105Z,3.40
2022-11-01T01:46:29.333Z,4.18
2022-11-01T01:51:44.619Z,4.53
2022-11-01T01:57:04.202Z,4.30
2022-11-01T02:02:27.485Z,3.70
2022-11-01T02:07:38.506Z,3.72
2022-11-01T02:12:46.813Z,3.87
2022-11-01T02:23:48.822Z,3.13
2022-11-01T02:29:26.843Z,3.70
2022-11-01T02:34:36.538Z,2.63
2022-11-01T02:39:48.445Z,3.42
2022-11-01T02:45:05.953Z,3.08
2022-11-01T02:50:32.615Z,2.60
2022-11-01T02:55:46.284Z,2.88
2022-11-01T03:00:55.830Z,4.10
2022-11-01T03:06:17.199Z,2.92
2022-11-01T03:11:29.385Z,3.17
2022-11-01T03:22:41.295Z,3.80
2022-11-01T03:27:46.035Z,3.60
2022-11-01T03:32:57.608Z,4.38
2022-11-01T03:38:08.450Z,3.50
2022-11-01T03:43:17.023Z,3.30
2022-11-01T03:48:29.715Z,3.53
2022-11-01T03:53:50.380Z,3.97
2022-11-01T03:59:09.620Z,3.00
2022-11-01T04:04:20.064Z,3.30
2022-11-01T04:09:43.639Z,2.90
2022-11-01T04:15:06.794Z,3.30
2022-11-01T04:20:31.457Z,2.87
2022-11-01T04:25:37.937Z,3.20
2022-11-01T04:30:51.414Z,3.25
2022-11-01T04:36:19.419Z,3.28
2022-11-01T04:41:29.571Z,3.95
2022-11-01T04:47:03.844Z,3.42
2022-11-01T04:52:19.143Z,4.05
2022-11-01T04:57:37.762Z,3.20
2022-11-01T05:02:43.210Z,3.45
2022-11-01T05:08:08.244Z,3.28
2022-11-01T05:13:28.678Z,2.97
2022-11-01T05:18:37.047Z,3.10
2022-11-01T05:23:58.882Z,3.42
2022-11-01T05:29:24.671Z,2.72
2022-11-01T05:34:38.888Z,3.25
2022-11-01T05:39:48.170Z,3.10
2022-11-01T05:45:18.386Z,2.92
2022-11-01T05:50:30.327Z,3.22
2022-11-01T06:01:08.531Z,2.92
2022-11-01T06:06:15.680Z,2.80
2022-11-01T06:11:41.537Z,3.00
2022-11-01T06:17:03.160Z,2.92
2022-11-01T06:22:34.860Z,2.38
2022-11-01T06:28:06.409Z,2.50
2022-11-01T06:33:15.392Z,2.53
2022-11-01T06:38:20.711Z,3.13
2022-11-01T06:43:29.366Z,1.92
2022-11-01T06:48:33.167Z,3.05
2022-11-01T06:53:40.098Z,3.08
2022-11-01T06:58:52.960Z,2.55
2022-11-01T07:04:19.644Z,2.40
2022-11-01T07:09:44.810Z,2.60
2022-11-01T07:15:07.259Z,2.28
2022-11-01T07:20:25.363Z,2.95
2022-11-01T07:25:33.200Z,1.65
2022-11-01T07:30:42.769Z,2.67
2022-11-01T07:35:47.241Z,3.70
2022-11-01T07:47:09.907Z,2.10
2022-11-01T07:52:30.240Z,2.30
2022-11-01T07:57:56.043Z,2.13
2022-11-01T08:03:21.844Z,2.80
2022-11-01T08:08:28.325Z,2.40
2022-11-01T08:13:40.383Z,2.55
2022-11-01T08:18:54.235Z,2.50
2022-11-01T08:24:29.684Z,2.75
2022-11-01T08:29:48.041Z,1.58
2022-11-01T08:34:55.341Z,2.60
2022-11-01T08:40:01.154Z,3.30
2022-11-01T08:45:08.325Z,2.20
2022-11-01T08:50:14.877Z,3.35
2022-11-01T08:55:32.549Z,3.35
2022-11-01T09:00:43.880Z,3.55
2022-11-01T09:06:10.191Z,3.50
2022-11-01T09:11:33.785Z,2.35
2022-11-01T09:16:38.358Z,3.60
2022-11-01T09:21:51.326Z,2.75
2022-11-01T09:27:16.467Z,3.17
2022-11-01T09:32:28.617Z,3.05
2022-11-01T09:43:10.124Z,2.15
2022-11-01T09:48:20.296Z,2.60
2022-11-01T09:53:30.181Z,2.53
2022-11-01T09:59:05.988Z,1.52
2022-11-01T10:04:32.067Z,2.47
2022-11-01T10:09:59.411Z,2.28
2022-11-01T10:15:37.743Z,1.63
2022-11-01T10:20:45.206Z,1.55
2022-11-01T10:25:55.276Z,2.60
2022-11-01T10:31:11.985Z,1.83
2022-11-01T10:36:19.327Z,1.92
2022-11-01T10:41:45.643Z,1.70
2022-11-01T10:46:54.466Z,1.77
2022-11-01T10:52:06.487Z,1.75
2022-11-01T10:57:35.237Z,1.67
2022-11-01T11:08:18.971Z,2.05
2022-11-01T11:13:48.059Z,1.80
2022-11-01T11:19:06.781Z,1.52
2022-11-01T11:24:19.591Z,1.70
2022-11-01T11:29:39.048Z,2.03
2022-11-01T11:34:51.810Z,2.40
2022-11-01T11:40:20.824Z,1.65
2022-11-01T11:45:30.111Z,1.92
2022-11-01T11:50:40.373Z,1.63
2022-11-01T11:55:49.301Z,1.70
2022-11-01T12:00:58.138Z,2.10
2022-11-01T12:06:22.545Z,2.30
2022-11-01T12:11:41.925Z,1.70
2022-11-01T12:17:15.417Z,1.58
2022-11-01T12:22:21.006Z,0.67
2022-11-01T12:27:38.641Z,1.35
2022-11-01T12:38:39.420Z,1.10
2022-11-01T12:43:56.966Z,1.30
2022-11-01T12:49:06.044Z,1.25
2022-11-01T12:54:26.860Z,1.08
2022-11-01T12:59:49.893Z,1.27
2022-11-01T13:05:07.992Z,1.30
2022-11-01T13:10:18.476Z,1.50
2022-11-01T13:15:31.260Z,1.20
2022-11-01T13:20:48.471Z,1.60
2022-11-01T13:25:58.595Z,1.80
2022-11-01T13:31:24.382Z,1.67
2022-11-01T13:36:39.044Z,1.75
2022-11-01T13:41:58.175Z,1.90
2022-11-01T13:47:37.100Z,1.40
2022-11-01T13:52:50.650Z,1.67
2022-11-01T13:58:07.273Z,1.70
2022-11-01T14:03:20.769Z,1.70
2022-11-01T14:08:39.144Z,1.23
2022-11-01T14:13:51.699Z,1.95
2022-11-01T14:19:28.082Z,1.27
2022-11-01T14:24:47.165Z,1.65
2022-11-01T14:30:04.398Z,1.60
2022-11-01T14:35:23.106Z,1.80
2022-11-01T14:40:35.365Z,1.50
2022-11-01T14:45:46.825Z,1.00
2022-11-01T14:51:00.505Z,1.30
2022-11-01T14:56:14.850Z,1.45
2022-11-01T15:01:24.931Z,1.50
2022-11-01T15:06:37.766Z,1.25
2022-11-01T15:11:43.964Z,1.38
2022-11-01T15:16:57.924Z,1.60
2022-11-01T15:22:03.694Z,1.33
2022-11-01T15:27:11.035Z,1.50
2022-11-01T15:32:41.876Z,1.33
2022-11-01T15:37:55.683Z,1.33
2022-11-01T15:48:21.154Z,1.63
2022-11-01T15:53:35.132Z,0.70
2022-11-01T15:58:40.548Z,5.90
2022-11-01T16:03:50.456Z,1.83
2022-11-01T16:09:26.337Z,1.50
2022-11-01T16:14:37.647Z,1.60
2022-11-01T16:25:39.367Z,1.73
2022-11-01T16:30:45.250Z,1.90
2022-11-01T16:35:48.646Z,2.40
2022-11-01T16:40:55.651Z,1.67
2022-11-01T16:45:58.841Z,2.05
2022-11-01T16:51:02.139Z,1.98
2022-11-01T16:56:34.569Z,1.70
2022-11-01T17:01:35.319Z,2.50
2022-11-01T17:06:39.325Z,2.90
2022-11-01T17:16:51.316Z,1.90
2022-11-01T17:21:53.927Z,1.70
2022-11-01T17:26:58.851Z,2.25
2022-11-01T17:32:04.218Z,2.20
2022-11-01T17:37:06.918Z,2.28
2022-11-01T17:42:10.176Z,2.53
2022-11-01T17:47:15.334Z,2.75
2022-11-01T17:52:18.259Z,2.28
2022-11-01T17:57:20.864Z,2.63
2022-11-01T18:02:25.148Z,2.20
2022-11-01T18:07:29.176Z,2.40
2022-11-01T18:12:34.739Z,1.73
2022-11-01T18:17:49.082Z,2.80
2022-11-01T18:22:55.597Z,2.33
2022-11-01T18:28:00.724Z,2.78
2022-11-01T18:33:08.238Z,3.97
2022-11-01T18:38:14.685Z,2.70
2022-11-01T18:43:21.241Z,2.83
2022-11-01T18:48:25.959Z,2.35
2022-11-01T18:53:29.153Z,2.30
2022-11-01T18:58:33.732Z,2.03
2022-11-01T19:03:37.746Z,2.30
2022-11-01T19:08:40.391Z,2.50
2022-11-01T19:13:47.260Z,2.20
2022-11-01T19:18:52.459Z,2.75
2022-11-01T19:23:55.808Z,2.10
2022-11-01T19:28:58.730Z,2.22
2022-11-01T19:34:03.934Z,3.03
2022-11-01T19:39:18.253Z,2.80
2022-11-01T19:44:22.578Z,2.40
2022-11-01T19:49:27.408Z,2.88
2022-11-01T19:54:35.535Z,3.17
2022-11-01T19:59:38.478Z,1.75
2022-11-01T20:04:42.774Z,2.77
2022-11-01T20:09:49.042Z,3.47
2022-11-01T20:14:52.081Z,2.47
2022-11-01T20:19:56.747Z,2.97
2022-11-01T20:25:03.129Z,3.00
2022-11-01T20:30:07.836Z,2.95
2022-11-01T20:35:13.253Z,2.70
2022-11-01T20:40:17.772Z,3.47
2022-11-01T20:45:22.221Z,2.78
2022-11-01T20:50:26.740Z,3.78
2022-11-01T20:55:29.776Z,3.30
2022-11-01T21:00:32.952Z,3.37
2022-11-01T21:05:37.879Z,3.03
2022-11-01T21:10:41.649Z,2.92
2022-11-01T21:15:46.291Z,3.50
2022-11-01T21:20:51.126Z,3.05
2022-11-01T21:25:55.010Z,3.17
2022-11-01T21:36:02.225Z,3.28
2022-11-01T21:41:22.566Z,3.10
2022-11-01T21:46:26.441Z,3.20
2022-11-01T21:51:32.489Z,2.47
2022-11-01T21:56:35.086Z,2.80
2022-11-01T22:01:38.154Z,2.60
2022-11-01T22:06:42.635Z,2.45
2022-11-01T22:11:45.248Z,1.77
2022-11-01T22:16:47.778Z,2.75
2022-11-01T22:21:51.984Z,3.15
2022-11-01T22:26:54.857Z,3.20
2022-11-01T22:31:57.799Z,2.20
2022-11-01T22:37:01.683Z,2.63
2022-11-01T22:42:07.143Z,2.63
2022-11-01T22:47:10.959Z,2.55
2022-11-01T22:52:19.410Z,2.13
2022-11-01T22:57:23.571Z,2.60
2022-11-01T23:02:28.036Z,2.72
2022-11-01T23:07:35.068Z,2.78
2022-11-01T23:12:55.827Z,2.50
2022-11-01T23:18:02.908Z,2.70
2022-11-01T23:23:07.915Z,2.47
2022-11-01T23:28:10.423Z,2.58
2022-11-01T23:33:13.724Z,1.92
2022-11-01T23:38:19.301Z,2.75
2022-11-01T23:43:23.991Z,2.10
2022-11-01T23:48:26.541Z,2.20
2022-11-01T23:53:33.085Z,2.63
2022-11-01T23:58:36.074Z,1.73
